sensor_id;sensor_type;location;lat;lon;timestamp;P1;durP1;ratioP1;P2;durP2;ratioP2
19095;SDS011;9680;52.520;13.332;2023-02-10T00:02:04;24.93;;;9.27;;
19095;SDS011;9680;52.520;13.332;2023-02-10T00:04:31;25.93;;;9.73;;
19095;SDS011;9680;52.520;13.332;2023-02-10T00:06:59;22.30;;;8.87;;
19095;SDS011;9680;52.520;13.332;2023-02-10T00:09:26;26.50;;;9.13;;
19095;SDS011;9680;52.520;13.332;2023-02-10T00:11:53;25.37;;;9.50;;
19095;SDS011;9680;52.520;13.332;2023-02-10T00:14:22;26.93;;;9.07;;
19095;SDS011;9680;52.520;13.332;2023-02-10T00:16:49;22.10;;;8.80;;
19095;SDS011;9680;52.520;13.332;2023-02-10T00:19:17;24.40;;;8.97;;
19095;SDS011;9680;52.520;13.332;2023-02-10T00:21:45;27.83;;;9.13;;
19095;SDS011;9680;52.520;13.332;2023-02-10T00:24:13;24.77;;;9.40;;
19095;SDS011;9680;52.520;13.332;2023-02-10T00:26:40;23.63;;;9.33;;
19095;SDS011;9680;52.520;13.332;2023-02-10T00:29:07;24.60;;;9.60;;
19095;SDS011;9680;52.520;13.332;2023-02-10T00:31:34;25.07;;;8.93;;
19095;SDS011;9680;52.520;13.332;2023-02-10T00:34:01;22.93;;;9.00;;
19095;SDS011;9680;52.520;13.332;2023-02-10T00:36:27;23.07;;;9.03;;
19095;SDS011;9680;52.520;13.332;2023-02-10T00:38:54;22.23;;;9.20;;
19095;SDS011;9680;52.520;13.332;2023-02-10T00:41:23;24.80;;;9.20;;
19095;SDS011;9680;52.520;13.332;2023-02-10T00:43:50;25.07;;;9.23;;
19095;SDS011;9680;52.520;13.332;2023-02-10T00:46:18;27.23;;;9.60;;
19095;SDS011;9680;52.520;13.332;2023-02-10T00:48:46;24.77;;;9.27;;
19095;SDS011;9680;52.520;13.332;2023-02-10T00:51:13;24.23;;;9.37;;
19095;SDS011;9680;52.520;13.332;2023-02-10T00:53:40;25.73;;;9.97;;
19095;SDS011;9680;52.520;13.332;2023-02-10T00:56:08;25.83;;;9.80;;
19095;SDS011;9680;52.520;13.332;2023-02-10T00:58:36;25.40;;;9.60;;
19095;SDS011;9680;52.520;13.332;2023-02-10T01:01:04;25.60;;;9.70;;
19095;SDS011;9680;52.520;13.332;2023-02-10T01:03:31;24.90;;;8.67;;
19095;SDS011;9680;52.520;13.332;2023-02-10T01:05:58;24.37;;;9.23;;
19095;SDS011;9680;52.520;13.332;2023-02-10T01:08:25;23.87;;;9.47;;
19095;SDS011;9680;52.520;13.332;2023-02-10T01:10:57;29.70;;;10.53;;
19095;SDS011;9680;52.520;13.332;2023-02-10T01:13:25;29.13;;;10.70;;
19095;SDS011;9680;52.520;13.332;2023-02-10T01:15:55;27.63;;;10.27;;
19095;SDS011;9680;52.520;13.332;2023-02-10T01:18:21;30.13;;;10.30;;
19095;SDS011;9680;52.520;13.332;2023-02-10T01:20:48;28.60;;;11.00;;
19095;SDS011;9680;52.520;13.332;2023-02-10T01:23:15;26.67;;;10.10;;
19095;SDS011;9680;52.520;13.332;2023-02-10T01:25:42;27.27;;;10.80;;
19095;SDS011;9680;52.520;13.332;2023-02-10T01:28:09;25.13;;;9.83;;
19095;SDS011;9680;52.520;13.332;2023-02-10T01:30:36;27.20;;;9.87;;
19095;SDS011;9680;52.520;13.332;2023-02-10T01:33:04;25.83;;;10.10;;
19095;SDS011;9680;52.520;13.332;2023-02-10T01:35:31;27.23;;;10.10;;
19095;SDS011;9680;52.520;13.332;2023-02-10T01:37:58;31.30;;;10.87;;
19095;SDS011;9680;52.520;13.332;2023-02-10T01:40:25;26.73;;;10.03;;
19095;SDS011;9680;52.520;13.332;2023-02-10T01:42:52;26.97;;;9.93;;
19095;SDS011;9680;52.520;13.332;2023-02-10T01:45:20;26.50;;;9.97;;
19095;SDS011;9680;52.520;13.332;2023-02-10T01:47:51;29.17;;;10.67;;
19095;SDS011;9680;52.520;13.332;2023-02-10T01:50:21;30.03;;;10.27;;
19095;SDS011;9680;52.520;13.332;2023-02-10T01:52:52;27.37;;;11.03;;
19095;SDS011;9680;52.520;13.332;2023-02-10T01:55:20;27.87;;;10.13;;
19095;SDS011;9680;52.520;13.332;2023-02-10T01:57:50;33.63;;;11.43;;
19095;SDS011;9680;52.520;13.332;2023-02-10T02:00:19;25.00;;;10.13;;
19095;SDS011;9680;52.520;13.332;2023-02-10T02:02:47;28.77;;;11.10;;
19095;SDS011;9680;52.520;13.332;2023-02-10T02:05:19;26.93;;;10.53;;
19095;SDS011;9680;52.520;13.332;2023-02-10T02:07:53;26.53;;;10.30;;
19095;SDS011;9680;52.520;13.332;2023-02-10T02:10:20;27.67;;;10.00;;
19095;SDS011;9680;52.520;13.332;2023-02-10T02:12:52;30.30;;;10.97;;
19095;SDS011;9680;52.520;13.332;2023-02-10T02:15:25;27.47;;;10.40;;
19095;SDS011;9680;52.520;13.332;2023-02-10T02:18:01;28.47;;;11.13;;
19095;SDS011;9680;52.520;13.332;2023-02-10T02:23:45;32.23;;;10.73;;
19095;SDS011;9680;52.520;13.332;2023-02-10T02:26:42;30.07;;;11.00;;
19095;SDS011;9680;52.520;13.332;2023-02-10T02:32:11;28.77;;;10.93;;
19095;SDS011;9680;52.520;13.332;2023-02-10T02:34:46;33.83;;;11.43;;
19095;SDS011;9680;52.520;13.332;2023-02-10T02:37:19;28.80;;;10.97;;
19095;SDS011;9680;52.520;13.332;2023-02-10T02:39:50;29.57;;;10.97;;
19095;SDS011;9680;52.520;13.332;2023-02-10T02:42:19;32.90;;;12.07;;
19095;SDS011;9680;52.520;13.332;2023-02-10T02:44:48;31.70;;;10.93;;
19095;SDS011;9680;52.520;13.332;2023-02-10T02:47:21;31.13;;;10.77;;
19095;SDS011;9680;52.520;13.332;2023-02-10T02:49:59;32.10;;;12.10;;
19095;SDS011;9680;52.520;13.332;2023-02-10T02:52:39;32.93;;;11.30;;
19095;SDS011;9680;52.520;13.332;2023-02-10T02:55:14;31.07;;;10.97;;
19095;SDS011;9680;52.520;13.332;2023-02-10T02:57:53;28.03;;;10.43;;
19095;SDS011;9680;52.520;13.332;2023-02-10T03:00:24;27.70;;;10.57;;
19095;SDS011;9680;52.520;13.332;2023-02-10T03:02:55;27.97;;;10.93;;
19095;SDS011;9680;52.520;13.332;2023-02-10T03:05:27;35.10;;;11.53;;
19095;SDS011;9680;52.520;13.332;2023-02-10T03:07:58;30.40;;;11.07;;
19095;SDS011;9680;52.520;13.332;2023-02-10T03:10:24;34.70;;;11.53;;
19095;SDS011;9680;52.520;13.332;2023-02-10T03:12:51;32.83;;;12.07;;
19095;SDS011;9680;52.520;13.332;2023-02-10T03:15:18;39.30;;;12.33;;
19095;SDS011;9680;52.520;13.332;2023-02-10T03:17:45;36.40;;;12.53;;
19095;SDS011;9680;52.520;13.332;2023-02-10T03:20:14;34.33;;;12.33;;
19095;SDS011;9680;52.520;13.332;2023-02-10T03:22:41;32.27;;;11.47;;
19095;SDS011;9680;52.520;13.332;2023-02-10T03:25:08;29.17;;;11.70;;
19095;SDS011;9680;52.520;13.332;2023-02-10T03:27:35;30.50;;;12.40;;
19095;SDS011;9680;52.520;13.332;2023-02-10T03:30:02;35.53;;;12.57;;
19095;SDS011;9680;52.520;13.332;2023-02-10T03:32:29;29.03;;;11.20;;
19095;SDS011;9680;52.520;13.332;2023-02-10T03:34:55;37.87;;;13.73;;
19095;SDS011;9680;52.520;13.332;2023-02-10T03:37:24;34.93;;;13.03;;
19095;SDS011;9680;52.520;13.332;2023-02-10T03:39:50;39.10;;;13.30;;
19095;SDS011;9680;52.520;13.332;2023-02-10T03:42:17;36.77;;;13.23;;
19095;SDS011;9680;52.520;13.332;2023-02-10T03:44:44;36.93;;;13.43;;
19095;SDS011;9680;52.520;13.332;2023-02-10T03:47:11;40.43;;;13.77;;
19095;SDS011;9680;52.520;13.332;2023-02-10T03:49:38;34.87;;;13.17;;
19095;SDS011;9680;52.520;13.332;2023-02-10T03:52:04;37.67;;;13.90;;
19095;SDS011;9680;52.520;13.332;2023-02-10T03:54:32;38.17;;;13.63;;
19095;SDS011;9680;52.520;13.332;2023-02-10T03:56:59;42.03;;;14.57;;
19095;SDS011;9680;52.520;13.332;2023-02-10T03:59:26;43.37;;;14.80;;
19095;SDS011;9680;52.520;13.332;2023-02-10T04:01:53;35.90;;;13.57;;
19095;SDS011;9680;52.520;13.332;2023-02-10T04:04:19;43.57;;;14.90;;
19095;SDS011;9680;52.520;13.332;2023-02-10T04:06:46;39.97;;;14.83;;
19095;SDS011;9680;52.520;13.332;2023-02-10T04:09:13;44.30;;;15.57;;
19095;SDS011;9680;52.520;13.332;2023-02-10T04:11:41;43.20;;;15.60;;
19095;SDS011;9680;52.520;13.332;2023-02-10T04:14:08;48.10;;;15.97;;
19095;SDS011;9680;52.520;13.332;2023-02-10T04:16:34;46.03;;;14.40;;
19095;SDS011;9680;52.520;13.332;2023-02-10T04:19:01;44.83;;;15.47;;
19095;SDS011;9680;52.520;13.332;2023-02-10T04:21:28;45.60;;;16.33;;
19095;SDS011;9680;52.520;13.332;2023-02-10T04:23:55;41.03;;;14.57;;
19095;SDS011;9680;52.520;13.332;2023-02-10T04:26:22;45.67;;;16.97;;
19095;SDS011;9680;52.520;13.332;2023-02-10T04:28:51;47.53;;;16.57;;
19095;SDS011;9680;52.520;13.332;2023-02-10T04:31:18;45.37;;;15.33;;
19095;SDS011;9680;52.520;13.332;2023-02-10T04:33:45;44.57;;;14.83;;
19095;SDS011;9680;52.520;13.332;2023-02-10T04:36:11;50.27;;;15.50;;
19095;SDS011;9680;52.520;13.332;2023-02-10T04:38:38;47.43;;;15.73;;
19095;SDS011;9680;52.520;13.332;2023-02-10T04:41:05;40.97;;;15.97;;
19095;SDS011;9680;52.520;13.332;2023-02-10T04:43:32;46.73;;;16.43;;
19095;SDS011;9680;52.520;13.332;2023-02-10T04:46:01;52.17;;;16.77;;
19095;SDS011;9680;52.520;13.332;2023-02-10T04:48:29;46.27;;;16.00;;
19095;SDS011;9680;52.520;13.332;2023-02-10T04:50:56;44.00;;;15.77;;
19095;SDS011;9680;52.520;13.332;2023-02-10T04:53:23;51.80;;;15.70;;
19095;SDS011;9680;52.520;13.332;2023-02-10T04:55:49;43.27;;;16.17;;
19095;SDS011;9680;52.520;13.332;2023-02-10T04:58:16;46.73;;;16.47;;
19095;SDS011;9680;52.520;13.332;2023-02-10T05:00:43;50.00;;;16.27;;
19095;SDS011;9680;52.520;13.332;2023-02-10T05:03:11;56.53;;;17.87;;
19095;SDS011;9680;52.520;13.332;2023-02-10T05:05:38;49.23;;;17.00;;
19095;SDS011;9680;52.520;13.332;2023-02-10T05:08:04;57.30;;;18.00;;
19095;SDS011;9680;52.520;13.332;2023-02-10T05:10:32;50.27;;;17.67;;
19095;SDS011;9680;52.520;13.332;2023-02-10T05:12:58;50.57;;;17.00;;
19095;SDS011;9680;52.520;13.332;2023-02-10T05:15:25;49.80;;;16.53;;
19095;SDS011;9680;52.520;13.332;2023-02-10T05:17:52;49.90;;;17.73;;
19095;SDS011;9680;52.520;13.332;2023-02-10T05:20:20;48.73;;;17.23;;
19095;SDS011;9680;52.520;13.332;2023-02-10T05:22:47;48.80;;;16.80;;
19095;SDS011;9680;52.520;13.332;2023-02-10T05:25:14;52.70;;;17.83;;
19095;SDS011;9680;52.520;13.332;2023-02-10T05:27:41;53.13;;;17.40;;
19095;SDS011;9680;52.520;13.332;2023-02-10T05:30:09;50.60;;;16.30;;
19095;SDS011;9680;52.520;13.332;2023-02-10T05:32:38;51.87;;;17.20;;
19095;SDS011;9680;52.520;13.332;2023-02-10T05:35:05;49.20;;;17.70;;
19095;SDS011;9680;52.520;13.332;2023-02-10T05:37:33;52.50;;;18.23;;
19095;SDS011;9680;52.520;13.332;2023-02-10T05:40:00;51.00;;;17.83;;
19095;SDS011;9680;52.520;13.332;2023-02-10T05:42:27;49.23;;;17.40;;
19095;SDS011;9680;52.520;13.332;2023-02-10T05:44:54;53.20;;;18.20;;
19095;SDS011;9680;52.520;13.332;2023-02-10T05:47:21;47.83;;;16.70;;
19095;SDS011;9680;52.520;13.332;2023-02-10T05:49:48;50.87;;;17.63;;
19095;SDS011;9680;52.520;13.332;2023-02-10T05:52:14;47.80;;;17.60;;
19095;SDS011;9680;52.520;13.332;2023-02-10T05:54:42;58.47;;;18.83;;
19095;SDS011;9680;52.520;13.332;2023-02-10T05:57:09;52.07;;;17.97;;
19095;SDS011;9680;52.520;13.332;2023-02-10T05:59:36;48.83;;;16.67;;
19095;SDS011;9680;52.520;13.332;2023-02-10T06:02:03;60.00;;;18.30;;
19095;SDS011;9680;52.520;13.332;2023-02-10T06:04:29;55.50;;;18.03;;
19095;SDS011;9680;52.520;13.332;2023-02-10T06:06:56;55.13;;;17.57;;
19095;SDS011;9680;52.520;13.332;2023-02-10T06:09:23;57.03;;;18.33;;
19095;SDS011;9680;52.520;13.332;2023-02-10T06:11:52;54.67;;;18.30;;
19095;SDS011;9680;52.520;13.332;2023-02-10T06:14:19;53.03;;;17.40;;
19095;SDS011;9680;52.520;13.332;2023-02-10T06:16:46;56.70;;;18.00;;
19095;SDS011;9680;52.520;13.332;2023-02-10T06:19:13;53.87;;;18.87;;
19095;SDS011;9680;52.520;13.332;2023-02-10T06:21:40;52.40;;;18.13;;
19095;SDS011;9680;52.520;13.332;2023-02-10T06:24:06;51.03;;;17.93;;
19095;SDS011;9680;52.520;13.332;2023-02-10T06:26:35;63.30;;;18.83;;
19095;SDS011;9680;52.520;13.332;2023-02-10T06:29:03;56.17;;;17.77;;
19095;SDS011;9680;52.520;13.332;2023-02-10T06:31:30;57.63;;;18.73;;
19095;SDS011;9680;52.520;13.332;2023-02-10T06:33:56;49.67;;;18.23;;
19095;SDS011;9680;52.520;13.332;2023-02-10T06:36:23;64.43;;;19.33;;
19095;SDS011;9680;52.520;13.332;2023-02-10T06:38:50;59.10;;;18.40;;
19095;SDS011;9680;52.520;13.332;2023-02-10T06:41:17;52.93;;;18.30;;
19095;SDS011;9680;52.520;13.332;2023-02-10T06:43:44;53.07;;;17.47;;
19095;SDS011;9680;52.520;13.332;2023-02-10T06:46:12;49.40;;;17.60;;
19095;SDS011;9680;52.520;13.332;2023-02-10T06:48:40;59.03;;;18.20;;
19095;SDS011;9680;52.520;13.332;2023-02-10T06:51:07;54.77;;;18.00;;
19095;SDS011;9680;52.520;13.332;2023-02-10T06:53:34;52.43;;;17.57;;
19095;SDS011;9680;52.520;13.332;2023-02-10T06:56:01;65.40;;;19.03;;
19095;SDS011;9680;52.520;13.332;2023-02-10T06:58:28;55.47;;;16.77;;
19095;SDS011;9680;52.520;13.332;2023-02-10T07:00:55;51.03;;;17.67;;
19095;SDS011;9680;52.520;13.332;2023-02-10T07:03:25;53.90;;;17.40;;
19095;SDS011;9680;52.520;13.332;2023-02-10T07:05:51;53.07;;;18.67;;
19095;SDS011;9680;52.520;13.332;2023-02-10T07:08:18;51.70;;;17.00;;
19095;SDS011;9680;52.520;13.332;2023-02-10T07:10:45;50.03;;;17.50;;
19095;SDS011;9680;52.520;13.332;2023-02-10T07:13:12;53.53;;;18.40;;
19095;SDS011;9680;52.520;13.332;2023-02-10T07:15:39;58.43;;;17.57;;
19095;SDS011;9680;52.520;13.332;2023-02-10T07:18:05;52.73;;;17.40;;
19095;SDS011;9680;52.520;13.332;2023-02-10T07:20:34;54.37;;;17.40;;
19095;SDS011;9680;52.520;13.332;2023-02-10T07:23:01;52.23;;;16.70;;
19095;SDS011;9680;52.520;13.332;2023-02-10T07:25:28;48.83;;;17.10;;
19095;SDS011;9680;52.520;13.332;2023-02-10T07:27:54;51.53;;;17.17;;
19095;SDS011;9680;52.520;13.332;2023-02-10T07:30:21;55.60;;;17.90;;
19095;SDS011;9680;52.520;13.332;2023-02-10T07:32:48;47.33;;;18.57;;
19095;SDS011;9680;52.520;13.332;2023-02-10T07:35:15;47.90;;;16.53;;
19095;SDS011;9680;52.520;13.332;2023-02-10T07:37:43;48.53;;;16.37;;
19095;SDS011;9680;52.520;13.332;2023-02-10T07:40:11;48.23;;;16.80;;
19095;SDS011;9680;52.520;13.332;2023-02-10T07:42:38;50.73;;;16.23;;
19095;SDS011;9680;52.520;13.332;2023-02-10T07:45:23;45.60;;;15.60;;
19095;SDS011;9680;52.520;13.332;2023-02-10T07:47:51;49.70;;;16.73;;
19095;SDS011;9680;52.520;13.332;2023-02-10T07:50:18;46.90;;;15.93;;
19095;SDS011;9680;52.520;13.332;2023-02-10T07:52:46;50.00;;;16.37;;
19095;SDS011;9680;52.520;13.332;2023-02-10T07:55:13;50.87;;;16.63;;
19095;SDS011;9680;52.520;13.332;2023-02-10T07:57:40;46.27;;;16.57;;
19095;SDS011;9680;52.520;13.332;2023-02-10T08:00:07;48.73;;;16.83;;
19095;SDS011;9680;52.520;13.332;2023-02-10T08:02:40;46.77;;;15.77;;
19095;SDS011;9680;52.520;13.332;2023-02-10T08:05:07;54.13;;;18.17;;
19095;SDS011;9680;52.520;13.332;2023-02-10T08:07:34;57.47;;;17.47;;
19095;SDS011;9680;52.520;13.332;2023-02-10T08:10:04;48.53;;;16.03;;
19095;SDS011;9680;52.520;13.332;2023-02-10T08:12:31;45.57;;;16.40;;
19095;SDS011;9680;52.520;13.332;2023-02-10T08:14:58;40.17;;;14.70;;
19095;SDS011;9680;52.520;13.332;2023-02-10T08:17:26;47.27;;;16.23;;
19095;SDS011;9680;52.520;13.332;2023-02-10T08:19:53;42.20;;;15.20;;
19095;SDS011;9680;52.520;13.332;2023-02-10T08:22:20;51.73;;;16.53;;
19095;SDS011;9680;52.520;13.332;2023-02-10T08:24:47;39.63;;;15.07;;
19095;SDS011;9680;52.520;13.332;2023-02-10T08:27:15;50.70;;;16.33;;
19095;SDS011;9680;52.520;13.332;2023-02-10T08:29:41;58.13;;;15.93;;
19095;SDS011;9680;52.520;13.332;2023-02-10T08:32:08;58.47;;;16.73;;
19095;SDS011;9680;52.520;13.332;2023-02-10T08:34:35;41.37;;;15.33;;
19095;SDS011;9680;52.520;13.332;2023-02-10T08:37:03;50.87;;;16.37;;
19095;SDS011;9680;52.520;13.332;2023-02-10T08:39:30;49.63;;;16.17;;
19095;SDS011;9680;52.520;13.332;2023-02-10T08:41:57;43.50;;;15.60;;
19095;SDS011;9680;52.520;13.332;2023-02-10T08:44:25;43.50;;;15.57;;
19095;SDS011;9680;52.520;13.332;2023-02-10T08:46:52;48.37;;;16.43;;
19095;SDS011;9680;52.520;13.332;2023-02-10T08:49:19;51.13;;;16.37;;
19095;SDS011;9680;52.520;13.332;2023-02-10T08:51:48;45.77;;;16.07;;
19095;SDS011;9680;52.520;13.332;2023-02-10T08:54:15;44.73;;;16.47;;
19095;SDS011;9680;52.520;13.332;2023-02-10T08:56:42;49.77;;;16.40;;
19095;SDS011;9680;52.520;13.332;2023-02-10T08:59:09;47.43;;;16.00;;
19095;SDS011;9680;52.520;13.332;2023-02-10T09:01:37;46.57;;;17.00;;
19095;SDS011;9680;52.520;13.332;2023-02-10T09:04:04;46.67;;;16.57;;
19095;SDS011;9680;52.520;13.332;2023-02-10T09:06:32;50.37;;;15.63;;
19095;SDS011;9680;52.520;13.332;2023-02-10T09:09:04;53.63;;;16.90;;
19095;SDS011;9680;52.520;13.332;2023-02-10T09:11:31;49.90;;;17.13;;
19095;SDS011;9680;52.520;13.332;2023-02-10T09:13:58;45.27;;;15.23;;
19095;SDS011;9680;52.520;13.332;2023-02-10T09:16:24;50.47;;;16.53;;
19095;SDS011;9680;52.520;13.332;2023-02-10T09:18:53;51.00;;;17.03;;
19095;SDS011;9680;52.520;13.332;2023-02-10T09:21:20;47.63;;;16.97;;
19095;SDS011;9680;52.520;13.332;2023-02-10T09:23:46;54.43;;;16.80;;
19095;SDS011;9680;52.520;13.332;2023-02-10T09:26:13;48.50;;;18.27;;
19095;SDS011;9680;52.520;13.332;2023-02-10T09:28:40;51.73;;;17.63;;
19095;SDS011;9680;52.520;13.332;2023-02-10T09:31:07;55.87;;;18.03;;
19095;SDS011;9680;52.520;13.332;2023-02-10T09:33:35;46.93;;;17.73;;
19095;SDS011;9680;52.520;13.332;2023-02-10T09:36:03;52.47;;;17.60;;
19095;SDS011;9680;52.520;13.332;2023-02-10T09:38:31;52.37;;;18.93;;
19095;SDS011;9680;52.520;13.332;2023-02-10T09:41:01;51.43;;;17.73;;
19095;SDS011;9680;52.520;13.332;2023-02-10T09:43:45;58.23;;;18.37;;
19095;SDS011;9680;52.520;13.332;2023-02-10T09:46:23;52.53;;;18.40;;
19095;SDS011;9680;52.520;13.332;2023-02-10T09:49:01;55.57;;;17.57;;
19095;SDS011;9680;52.520;13.332;2023-02-10T09:51:40;51.13;;;17.00;;
19095;SDS011;9680;52.520;13.332;2023-02-10T09:54:13;54.53;;;17.03;;
19095;SDS011;9680;52.520;13.332;2023-02-10T09:56:42;49.60;;;17.43;;
19095;SDS011;9680;52.520;13.332;2023-02-10T09:59:10;49.83;;;17.17;;
19095;SDS011;9680;52.520;13.332;2023-02-10T10:01:42;54.23;;;17.67;;
19095;SDS011;9680;52.520;13.332;2023-02-10T10:04:12;41.50;;;16.23;;
19095;SDS011;9680;52.520;13.332;2023-02-10T10:06:42;44.13;;;16.30;;
19095;SDS011;9680;52.520;13.332;2023-02-10T10:09:14;49.03;;;16.70;;
19095;SDS011;9680;52.520;13.332;2023-02-10T10:11:53;50.33;;;16.13;;
19095;SDS011;9680;52.520;13.332;2023-02-10T10:14:22;51.97;;;17.47;;
19095;SDS011;9680;52.520;13.332;2023-02-10T10:16:57;58.30;;;17.60;;
19095;SDS011;9680;52.520;13.332;2023-02-10T10:19:32;46.43;;;16.70;;
19095;SDS011;9680;52.520;13.332;2023-02-10T10:22:13;48.30;;;15.63;;
19095;SDS011;9680;52.520;13.332;2023-02-10T10:24:56;49.93;;;16.20;;
19095;SDS011;9680;52.520;13.332;2023-02-10T10:27:47;42.73;;;16.07;;
19095;SDS011;9680;52.520;13.332;2023-02-10T10:30:27;44.90;;;15.17;;
19095;SDS011;9680;52.520;13.332;2023-02-10T10:33:06;44.90;;;14.93;;
19095;SDS011;9680;52.520;13.332;2023-02-10T10:35:47;46.43;;;15.80;;
19095;SDS011;9680;52.520;13.332;2023-02-10T10:38:16;46.27;;;15.77;;
19095;SDS011;9680;52.520;13.332;2023-02-10T10:40:46;44.37;;;15.03;;
19095;SDS011;9680;52.520;13.332;2023-02-10T10:43:17;41.33;;;15.13;;
19095;SDS011;9680;52.520;13.332;2023-02-10T10:45:49;46.00;;;16.10;;
19095;SDS011;9680;52.520;13.332;2023-02-10T10:48:20;48.80;;;15.53;;
19095;SDS011;9680;52.520;13.332;2023-02-10T10:50:52;42.53;;;15.67;;
19095;SDS011;9680;52.520;13.332;2023-02-10T10:53:24;50.27;;;15.80;;
19095;SDS011;9680;52.520;13.332;2023-02-10T10:56:00;43.33;;;15.03;;
19095;SDS011;9680;52.520;13.332;2023-02-10T10:58:30;44.97;;;15.50;;
19095;SDS011;9680;52.520;13.332;2023-02-10T11:01:01;39.37;;;14.27;;
19095;SDS011;9680;52.520;13.332;2023-02-10T11:03:30;46.07;;;15.07;;
19095;SDS011;9680;52.520;13.332;2023-02-10T11:05:59;40.70;;;15.00;;
19095;SDS011;9680;52.520;13.332;2023-02-10T11:08:33;40.43;;;13.63;;
19095;SDS011;9680;52.520;13.332;2023-02-10T11:11:04;52.27;;;15.07;;
19095;SDS011;9680;52.520;13.332;2023-02-10T11:13:35;45.20;;;13.63;;
19095;SDS011;9680;52.520;13.332;2023-02-10T11:16:05;43.70;;;14.27;;
19095;SDS011;9680;52.520;13.332;2023-02-10T11:18:35;44.53;;;16.03;;
19095;SDS011;9680;52.520;13.332;2023-02-10T11:21:04;36.87;;;14.10;;
19095;SDS011;9680;52.520;13.332;2023-02-10T11:23:45;47.80;;;14.97;;
19095;SDS011;9680;52.520;13.332;2023-02-10T11:26:18;46.43;;;15.10;;
19095;SDS011;9680;52.520;13.332;2023-02-10T11:28:46;46.03;;;15.37;;
19095;SDS011;9680;52.520;13.332;2023-02-10T11:31:29;42.70;;;14.03;;
19095;SDS011;9680;52.520;13.332;2023-02-10T11:34:00;47.20;;;13.97;;
19095;SDS011;9680;52.520;13.332;2023-02-10T11:36:30;54.70;;;18.57;;
19095;SDS011;9680;52.520;13.332;2023-02-10T11:39:04;44.93;;;14.50;;
19095;SDS011;9680;52.520;13.332;2023-02-10T11:41:32;47.83;;;16.30;;
19095;SDS011;9680;52.520;13.332;2023-02-10T11:44:00;44.50;;;15.73;;
19095;SDS011;9680;52.520;13.332;2023-02-10T11:46:29;47.07;;;15.43;;
19095;SDS011;9680;52.520;13.332;2023-02-10T11:48:57;51.23;;;18.33;;
19095;SDS011;9680;52.520;13.332;2023-02-10T11:51:26;46.77;;;17.73;;
19095;SDS011;9680;52.520;13.332;2023-02-10T11:53:53;42.70;;;15.27;;
19095;SDS011;9680;52.520;13.332;2023-02-10T11:56:23;48.20;;;17.20;;
19095;SDS011;9680;52.520;13.332;2023-02-10T11:59:08;49.20;;;16.13;;
19095;SDS011;9680;52.520;13.332;2023-02-10T12:01:46;49.07;;;16.57;;
19095;SDS011;9680;52.520;13.332;2023-02-10T12:07:14;50.77;;;16.33;;
19095;SDS011;9680;52.520;13.332;2023-02-10T12:09:48;59.47;;;18.37;;
19095;SDS011;9680;52.520;13.332;2023-02-10T12:12:24;46.50;;;16.53;;
19095;SDS011;9680;52.520;13.332;2023-02-10T12:15:02;47.63;;;15.50;;
19095;SDS011;9680;52.520;13.332;2023-02-10T12:17:39;46.87;;;16.37;;
19095;SDS011;9680;52.520;13.332;2023-02-10T12:20:20;49.17;;;16.43;;
19095;SDS011;9680;52.520;13.332;2023-02-10T12:25:56;42.97;;;15.73;;
19095;SDS011;9680;52.520;13.332;2023-02-10T12:28:37;43.83;;;17.23;;
19095;SDS011;9680;52.520;13.332;2023-02-10T12:31:15;43.73;;;14.97;;
19095;SDS011;9680;52.520;13.332;2023-02-10T12:33:56;40.43;;;15.00;;
19095;SDS011;9680;52.520;13.332;2023-02-10T12:36:38;47.17;;;15.57;;
19095;SDS011;9680;52.520;13.332;2023-02-10T12:39:12;45.57;;;15.93;;
19095;SDS011;9680;52.520;13.332;2023-02-10T12:41:49;40.67;;;15.90;;
19095;SDS011;9680;52.520;13.332;2023-02-10T12:44:31;46.80;;;17.57;;
19095;SDS011;9680;52.520;13.332;2023-02-10T12:47:08;43.30;;;15.53;;
19095;SDS011;9680;52.520;13.332;2023-02-10T12:49:47;46.43;;;14.97;;
19095;SDS011;9680;52.520;13.332;2023-02-10T12:52:25;43.07;;;15.40;;
19095;SDS011;9680;52.520;13.332;2023-02-10T12:54:57;44.63;;;14.73;;
19095;SDS011;9680;52.520;13.332;2023-02-10T12:57:32;45.27;;;14.70;;
19095;SDS011;9680;52.520;13.332;2023-02-10T13:00:09;52.07;;;15.53;;
19095;SDS011;9680;52.520;13.332;2023-02-10T13:02:40;43.90;;;14.63;;
19095;SDS011;9680;52.520;13.332;2023-02-10T13:05:12;42.70;;;14.80;;
19095;SDS011;9680;52.520;13.332;2023-02-10T13:07:45;36.33;;;13.33;;
19095;SDS011;9680;52.520;13.332;2023-02-10T13:10:18;43.53;;;14.40;;
19095;SDS011;9680;52.520;13.332;2023-02-10T13:12:53;46.23;;;13.87;;
19095;SDS011;9680;52.520;13.332;2023-02-10T13:15:25;33.27;;;12.80;;
19095;SDS011;9680;52.520;13.332;2023-02-10T13:17:55;37.83;;;12.33;;
19095;SDS011;9680;52.520;13.332;2023-02-10T13:20:28;37.27;;;13.27;;
19095;SDS011;9680;52.520;13.332;2023-02-10T13:23:04;40.10;;;13.53;;
19095;SDS011;9680;52.520;13.332;2023-02-10T13:25:41;39.53;;;12.73;;
19095;SDS011;9680;52.520;13.332;2023-02-10T13:28:20;34.83;;;12.80;;
19095;SDS011;9680;52.520;13.332;2023-02-10T13:31:00;36.23;;;13.10;;
19095;SDS011;9680;52.520;13.332;2023-02-10T13:33:49;40.43;;;13.00;;
19095;SDS011;9680;52.520;13.332;2023-02-10T13:36:22;35.97;;;13.70;;
19095;SDS011;9680;52.520;13.332;2023-02-10T13:38:57;37.83;;;12.93;;
19095;SDS011;9680;52.520;13.332;2023-02-10T13:41:26;38.13;;;12.73;;
19095;SDS011;9680;52.520;13.332;2023-02-10T13:44:18;41.53;;;13.60;;
19095;SDS011;9680;52.520;13.332;2023-02-10T13:46:51;33.53;;;13.00;;
19095;SDS011;9680;52.520;13.332;2023-02-10T13:49:22;44.27;;;13.67;;
19095;SDS011;9680;52.520;13.332;2023-02-10T13:51:50;39.33;;;13.03;;
19095;SDS011;9680;52.520;13.332;2023-02-10T13:54:26;37.07;;;13.03;;
19095;SDS011;9680;52.520;13.332;2023-02-10T13:56:55;33.03;;;12.07;;
19095;SDS011;9680;52.520;13.332;2023-02-10T13:59:24;32.63;;;12.27;;
19095;SDS011;9680;52.520;13.332;2023-02-10T14:02:03;38.37;;;12.67;;
19095;SDS011;9680;52.520;13.332;2023-02-10T14:04:46;39.47;;;13.07;;
19095;SDS011;9680;52.520;13.332;2023-02-10T14:07:15;37.83;;;13.10;;
19095;SDS011;9680;52.520;13.332;2023-02-10T14:10:02;33.17;;;12.60;;
19095;SDS011;9680;52.520;13.332;2023-02-10T14:12:31;40.23;;;12.70;;
19095;SDS011;9680;52.520;13.332;2023-02-10T14:15:12;31.33;;;12.27;;
19095;SDS011;9680;52.520;13.332;2023-02-10T14:17:53;34.10;;;12.73;;
19095;SDS011;9680;52.520;13.332;2023-02-10T14:20:27;36.00;;;13.07;;
19095;SDS011;9680;52.520;13.332;2023-02-10T14:22:57;34.70;;;13.00;;
19095;SDS011;9680;52.520;13.332;2023-02-10T14:25:27;37.23;;;13.03;;
19095;SDS011;9680;52.520;13.332;2023-02-10T14:27:57;37.80;;;13.17;;
19095;SDS011;9680;52.520;13.332;2023-02-10T14:30:26;36.43;;;12.67;;
19095;SDS011;9680;52.520;13.332;2023-02-10T14:32:59;39.60;;;14.00;;
19095;SDS011;9680;52.520;13.332;2023-02-10T14:35:27;41.33;;;14.27;;
19095;SDS011;9680;52.520;13.332;2023-02-10T14:37:56;43.00;;;14.10;;
19095;SDS011;9680;52.520;13.332;2023-02-10T14:40:25;42.37;;;14.30;;
19095;SDS011;9680;52.520;13.332;2023-02-10T14:42:54;37.23;;;14.33;;
19095;SDS011;9680;52.520;13.332;2023-02-10T14:45:21;38.23;;;13.47;;
19095;SDS011;9680;52.520;13.332;2023-02-10T14:47:50;31.90;;;12.57;;
19095;SDS011;9680;52.520;13.332;2023-02-10T14:50:24;37.00;;;13.93;;
19095;SDS011;9680;52.520;13.332;2023-02-10T14:52:52;38.60;;;14.60;;